Stations météo

réclame
Mon MeteoGroup
Uccle, Belgique (6447): Température de l'air & dewpoint: 14.07.2018 22:00:00 - 20.07.2018 22:00:00 (CEST)Uccle, Belgique (6447): Vitesse du vent & gusts: 14.07.2018 22:00:00 - 20.07.2018 22:00:00 (CEST)Uccle, Belgique (6447): Direction du vent: 14.07.2018 22:00:00 - 20.07.2018 22:00:00 (CEST)Uccle, Belgique (6447): reduced air pressure: 14.07.2018 22:00:00 - 20.07.2018 22:00:00 (CEST)Uccle, Belgique (6447): Ensoleillement: 14.07.2018 22:00:00 - 20.07.2018 22:00:00 (CEST)Uccle, Belgique (6447): Quantités de précipitations: 14.07.2018 22:00:00 - 20.07.2018 22:00:00 (CEST)
Date & Time tt [°C] td [°C] ff [km/h] ff [knt] fx [km/h] fx [knt] dd ppp [hPa] sd [min] rr [mm]
20.07.2018 22:00:00 21,2 5,7 6 4 13 7 N 1012,2 0 0,0
20.07.2018 21:00:00 21,9 6,2 5 3 21 12 N 1012,2 0 0,0
20.07.2018 20:00:00 21,9 9,1 11 6 22 12 NNW 1011,9 0 0,0
20.07.2018 19:00:00 22,0 10,8 9 5 17 9 NNW 1012,1 0 0,0
20.07.2018 18:00:00 22,6 9,2 12 7 26 14 W 1012,8 0 0,0
20.07.2018 17:00:00 23,5 6,4 10 5 24 13 W 1013,4 0 0,0
20.07.2018 16:00:00 24,0 4,8 12 7 21 11 WNW 1013,6 0 0,0
20.07.2018 15:00:00 24,5 4,7 9 5 21 12 NW 1013,6 0 0,0
20.07.2018 14:00:00 25,3 5,7 7 4 20 11 NNE 1013,6 21 0,0
20.07.2018 13:00:00 25,8 5,8 10 5 23 12 NNE 1013,9 60 0,0
20.07.2018 12:00:00 24,4 5,2 9 5 18 10 N 1014,4 60 0,0
20.07.2018 11:00:00 22,9 8,2 7 4 - - N 1014,4 - -
20.07.2018 10:00:00 20,4 11,2 7 4 11 6 N 1014,7 - -
20.07.2018 09:00:00 19,1 12,4 4 2 9 5 N 1014,9 58 0,0
20.07.2018 08:00:00 17,1 12,5 7 4 10 5 NNE 1015,1 60 0,0
20.07.2018 07:00:00 14,5 9,5 4 2 10 5 NNE 1015,2 8 0,0
20.07.2018 06:00:00 14,7 8,5 5 3 16 9 NE 1015,5 0 0,0
20.07.2018 05:00:00 15,2 8,5 8 5 12 6 NNE 1015,6 0 0,0
20.07.2018 04:00:00 16,1 8,0 5 3 14 8 NE 1015,8 0 0,0
20.07.2018 03:00:00 17,6 7,7 8 4 16 9 ENE 1016,2 0 0,0
20.07.2018 02:00:00 17,5 6,6 7 4 16 9 NNE 1016,6 0 0,0
20.07.2018 01:00:00 19,3 6,0 11 6 18 10 NE 1016,7 0 0,0
20.07.2018 00:00:00 20,1 6,2 11 6 22 12 NNE 1016,9 0 0,0
19.07.2018 23:00:00 21,1 6,3 12 7 21 12 N 1016,8 0 0,0
19.07.2018 22:00:00 21,9 6,6 11 6 32 18 N 1016,8 0 0,0
19.07.2018 21:00:00 23,3 7,3 16 9 28 15 N 1016,6 28 0,0
19.07.2018 20:00:00 24,9 8,8 11 6 23 12 NNW 1016,2 60 0,0
19.07.2018 19:00:00 25,9 7,5 8 5 27 14 NW 1016,1 60 0,0
19.07.2018 18:00:00 26,3 7,8 10 6 21 11 NNW 1016,4 60 0,0
19.07.2018 17:00:00 26,2 7,2 7 4 - - WNW 1016,9 - -
19.07.2018 16:00:00 25,5 7,3 6 3 15 8 NNW 1017,4 10 0,0
19.07.2018 15:00:00 25,4 7,5 7 4 18 10 NNW 1017,6 - -
19.07.2018 14:00:00 24,9 7,7 4 2 16 9 N 1017,8 44 0,0
19.07.2018 13:00:00 25,1 8,2 6 4 18 10 WNW 1018,2 57 0,0
19.07.2018 12:00:00 23,4 9,6 8 5 15 8 N 1018,4 60 0,0
19.07.2018 11:00:00 22,5 10,1 10 5 16 9 NNE 1018,7 60 0,0
19.07.2018 10:00:00 21,0 12,9 8 4 15 8 NNE 1018,8 60 0,0
19.07.2018 09:00:00 18,9 13,0 6 4 11 6 NW 1018,8 60 0,0
19.07.2018 08:00:00 15,9 13,1 4 2 6 4 WNW 1018,8 60 0,0
19.07.2018 07:00:00 13,5 11,4 0 0 4 2 N 1018,9 25 0,0
19.07.2018 06:00:00 13,8 11,2 4 2 7 4 W 1018,6 0 0,0
19.07.2018 05:00:00 14,5 10,4 4 2 9 5 W 1018,8 0 0,0
19.07.2018 04:00:00 15,0 10,4 6 4 10 5 E 1018,7 0 0,0
19.07.2018 03:00:00 15,7 10,2 4 2 9 5 E 1018,9 0 0,0
19.07.2018 02:00:00 17,5 10,0 7 4 16 9 ENE 1019,0 0 0,0
19.07.2018 01:00:00 18,8 9,8 10 6 20 11 NE 1018,8 0 0,0
19.07.2018 00:00:00 19,2 10,2 10 6 18 10 NNE 1018,8 0 0,0
18.07.2018 23:00:00 20,4 10,2 13 7 26 14 N 1018,7 0 0,0
18.07.2018 22:00:00 21,2 10,2 15 8 24 13 N 1018,3 0 0,0
18.07.2018 21:00:00 23,0 10,2 13 7 23 13 N 1018,0 32 0,0
18.07.2018 20:00:00 24,4 8,9 7 4 23 12 N 1017,5 60 0,0
18.07.2018 19:00:00 24,7 8,9 12 7 25 14 N 1017,5 35 0,0
18.07.2018 18:00:00 24,7 7,1 10 5 21 11 NNW 1017,7 52 0,0
18.07.2018 17:00:00 24,8 6,5 6 3 21 11 NW 1017,9 42 0,0
18.07.2018 16:00:00 25,1 7,2 10 5 22 12 WNW 1018,1 36 0,0
18.07.2018 15:00:00 23,8 7,3 14 7 26 14 W 1018,5 43 0,0
18.07.2018 14:00:00 22,6 7,0 11 6 22 12 NW 1018,7 39 0,0
18.07.2018 13:00:00 23,4 7,3 11 6 22 12 WNW 1018,8 59 0,0
18.07.2018 12:00:00 22,0 7,3 10 5 21 12 WSW 1018,8 60 0,0
18.07.2018 11:00:00 20,3 9,2 7 4 18 10 WSW 1019,1 60 0,0
18.07.2018 10:00:00 18,9 9,9 6 4 14 7 WSW 1019,1 60 0,0
18.07.2018 09:00:00 17,9 11,0 6 3 11 6 WSW 1019,0 60 0,0
18.07.2018 08:00:00 15,6 12,3 4 2 8 4 W 1018,8 60 0,0
18.07.2018 07:00:00 13,0 11,0 4 2 4 2 SSW 1018,7 29 0,0
18.07.2018 06:00:00 12,7 10,6 4 2 5 3 WSW 1018,7 0 0,0
18.07.2018 05:00:00 13,7 11,0 4 2 7 4 SW 1018,4 0 0,0
18.07.2018 04:00:00 14,1 10,6 4 2 6 3 NW 1018,4 0 0,0
18.07.2018 03:00:00 14,9 9,8 4 2 6 3 NNW 1018,5 0 0,0
18.07.2018 02:00:00 15,6 9,6 7 4 11 6 NE 1018,5 0 0,0
18.07.2018 01:00:00 15,7 9,0 6 3 10 5 NE 1018,5 0 0,0
18.07.2018 00:00:00 17,2 9,2 0 0 12 7 N 1018,2 0 0,0
17.07.2018 23:00:00 18,5 7,7 8 4 13 7 NNE 1017,8 0 0,0
17.07.2018 22:00:00 20,9 6,8 6 4 16 8 NW 1017,2 0 0,0
17.07.2018 21:00:00 22,1 6,4 10 5 24 13 NW 1016,8 32 0,0
17.07.2018 20:00:00 23,4 6,4 14 8 27 15 WNW 1016,3 38 0,0
17.07.2018 19:00:00 23,4 7,2 9 5 29 16 WNW 1016,2 14 0,0
17.07.2018 18:00:00 24,6 6,7 16 8 37 20 WSW 1016,0 22 0,0
17.07.2018 17:00:00 25,3 7,1 15 8 41 22 W 1016,0 47 0,0
17.07.2018 16:00:00 24,7 7,2 16 9 37 20 W 1015,9 44 0,0
17.07.2018 15:00:00 24,4 8,8 16 8 34 18 WSW 1015,9 43 0,0
17.07.2018 14:00:00 24,7 11,2 14 8 27 14 WSW 1016,1 37 0,0
17.07.2018 13:00:00 24,0 14,0 15 8 26 14 SW 1016,0 47 0,0
17.07.2018 12:00:00 22,3 14,9 11 6 27 14 WSW 1015,9 50 0,0
17.07.2018 11:00:00 21,0 15,9 12 6 23 12 WSW 1015,7 60 0,0
17.07.2018 10:00:00 19,7 15,4 13 7 24 13 SW 1015,5 60 0,0
17.07.2018 09:00:00 18,4 14,5 9 5 24 13 SW 1015,2 60 0,0
17.07.2018 08:00:00 17,2 12,7 7 4 17 9 WSW 1014,9 60 0,0
17.07.2018 07:00:00 15,9 11,9 7 4 12 7 WSW 1014,4 11 0,0
17.07.2018 06:00:00 15,8 12,4 6 3 12 7 WSW 1014,2 0 0,0
17.07.2018 05:00:00 17,3 13,7 6 3 11 6 WSW 1014,2 0 0,0
17.07.2018 04:00:00 18,0 14,6 6 3 10 5 WSW 1014,0 0 0,0
17.07.2018 03:00:00 18,2 14,9 4 2 16 9 WNW 1014,0 0 0,0
17.07.2018 02:00:00 17,8 14,9 8 4 14 8 W 1014,1 0 0,0
17.07.2018 01:00:00 17,8 15,2 9 5 13 7 WSW 1013,9 0 0,0
17.07.2018 00:00:00 19,1 15,6 5 3 7 4 S 1013,3 0 0,0
16.07.2018 23:00:00 19,7 14,9 6 4 18 10 NNE 1012,9 0 0,0
16.07.2018 22:00:00 20,0 14,7 9 5 25 14 NE 1012,7 0 0,0
16.07.2018 21:00:00 19,5 17,4 14 7 23 12 NNE 1012,4 0 0,6
16.07.2018 20:00:00 19,1 16,4 11 6 35 19 NNW 1012,5 0 1,5
16.07.2018 19:00:00 22,1 13,1 15 8 49 26 W 1012,6 0 0,1
16.07.2018 18:00:00 28,9 4,9 7 4 15 8 E 1011,0 35 0,0
16.07.2018 17:00:00 29,0 5,0 5 3 20 11 E 1011,2 35 0,0
16.07.2018 16:00:00 29,4 5,1 5 3 22 12 ENE 1011,5 47 0,0
16.07.2018 15:00:00 29,4 4,9 6 4 19 10 SSW 1012,0 60 0,0
16.07.2018 14:00:00 29,2 5,8 7 4 20 11 ENE 1012,5 60 0,0
16.07.2018 13:00:00 28,8 6,0 5 3 22 12 ENE 1012,8 60 0,0
16.07.2018 12:00:00 28,1 5,8 9 5 19 10 ESE 1013,0 60 0,0
16.07.2018 11:00:00 26,9 7,7 7 4 14 7 ESE 1013,1 60 0,0
16.07.2018 10:00:00 25,4 9,4 5 3 13 7 ESE 1013,2 60 0,0
16.07.2018 09:00:00 22,5 11,6 8 5 14 8 ESE 1013,4 60 0,0
16.07.2018 08:00:00 19,7 9,8 7 4 13 7 ESE 1013,4 60 0,0
16.07.2018 07:00:00 17,9 8,2 9 5 13 7 E 1013,4 37 0,0
16.07.2018 06:00:00 16,9 7,8 7 4 12 7 E 1013,4 0 0,0
16.07.2018 05:00:00 16,9 8,3 6 3 11 6 E 1013,5 0 0,0
16.07.2018 04:00:00 17,7 8,6 6 3 14 8 E 1013,7 0 0,0
16.07.2018 03:00:00 18,5 10,3 8 4 14 8 E 1013,9 0 0,0
16.07.2018 02:00:00 19,0 10,8 9 5 11 6 NE 1014,3 0 0,0
16.07.2018 01:00:00 20,1 10,0 8 5 11 6 NNE 1014,5 0 0,0
16.07.2018 00:00:00 21,4 9,2 7 4 11 6 NNE 1014,6 0 0,0
15.07.2018 23:00:00 22,9 7,5 8 4 16 9 N 1014,5 0 0,0
15.07.2018 22:00:00 25,3 6,2 9 5 18 10 NNE 1014,2 0 0,0
15.07.2018 21:00:00 26,5 5,6 9 5 26 14 NE 1013,7 32 0,0
15.07.2018 20:00:00 28,3 5,3 11 6 22 12 NE 1013,2 59 0,0
15.07.2018 19:00:00 28,8 4,3 8 4 19 10 E 1013,3 60 0,0
15.07.2018 18:00:00 29,0 3,5 5 3 22 12 ENE 1013,6 60 0,0
15.07.2018 17:00:00 28,7 3,4 6 3 18 10 N 1014,1 60 0,0
15.07.2018 16:00:00 28,7 4,4 5 3 17 9 NE 1014,5 60 0,0
15.07.2018 15:00:00 28,1 5,6 9 5 21 12 E 1015,1 53 0,0
15.07.2018 14:00:00 27,4 5,1 11 6 23 12 NE 1015,7 60 0,0
15.07.2018 13:00:00 26,7 6,4 9 5 24 13 NE 1016,2 60 0,0
15.07.2018 12:00:00 25,6 6,7 5 3 16 9 E 1016,6 60 0,0
15.07.2018 11:00:00 24,8 7,7 10 5 20 11 ENE 1016,9 60 0,0
15.07.2018 10:00:00 22,9 11,2 5 3 14 8 E 1016,9 60 0,0
15.07.2018 09:00:00 20,4 11,2 5 3 14 8 ESE 1017,1 60 0,0
15.07.2018 08:00:00 17,7 10,3 7 4 16 9 E 1017,1 60 0,0
15.07.2018 07:00:00 15,9 10,1 8 4 14 7 E 1016,8 43 0,0
15.07.2018 06:00:00 16,2 10,0 7 4 18 10 E 1016,9 0 0,0
15.07.2018 05:00:00 16,6 10,2 8 4 15 8 E 1017,2 0 0,0
15.07.2018 04:00:00 17,0 10,3 6 3 13 7 E 1017,4 0 0,0
15.07.2018 03:00:00 18,3 10,4 9 5 21 12 ENE 1017,7 0 0,0
15.07.2018 02:00:00 19,3 10,2 11 6 21 12 NE 1017,9 0 0,0
15.07.2018 01:00:00 20,3 9,6 14 7 24 13 NE 1018,1 0 0,0
15.07.2018 00:00:00 21,4 9,1 13 7 22 12 NE 1018,0 0 0,0
14.07.2018 23:00:00 22,4 9,3 13 7 25 14 NNE 1017,8 0 0,0
14.07.2018 22:00:00 23,9 8,4 14 7 26 14 NNE 1017,4 0 0,0

tt = Température de l'air
td = dewpoint
ff = Vitesse du vent
fx = gusts
dd = Direction du vent
ppp = reduced air pressure
sd = Ensoleillement
rr = Quantités de précipitations

stations d'obs. à proximité